Airfield :
LOGIN :

Register | Disclaimer

   EN    FR    IT 

 










Legend :    VFR   Marginal VFR   IFR   Intensive IFR   Very Intensive IFR
Visi :
Ceiling :
>= 8 km
>= 3000ft
5 to 8 km
1000 to 3000 ft
1500m to 5 km
500 to 1000 ft
800 to 1500m
200 to 500 ft
< 800m
< 200 ft
Symbols :   Thunderstorms  Fog  Heavy snow  Heavy precipitations  Wind > 20 kt
SIGMETs :     Misc.  Thunderstorms  Icing  Turbulence  Mountain Waves  Volcanic Ashes







- Airport Elevation : 375 ft
- IATA code : MST


EHBK - Maastricht Aachen

CURRENT METAR :
  • 211155Z AUTO 31009G19KT 230V010 9999 NSC 17/05 Q1021 NOSIG

EXPIRED METARs :
  • 211125Z AUTO 30010KT 230V360 9999 NSC 18/04 Q1020 BECMG 30015G25KT
  • 211055Z AUTO 32013G23KT 260V010 9999 FEW048 18/06 Q1020 BECMG 30015G25KT
  • 211025Z AUTO 31011G21KT 230V360 9999 FEW044 18/06 Q1020 BECMG 30015G25KT
  • 210955Z AUTO 29013KT 240V350 9999 BKN037 17/07 Q1020 NOSIG
  • 210925Z AUTO 30011KT 250V360 9999 SCT026 OVC030 16/10 Q1019 NOSIG

TAF TAF EHBK
Valid from the 21 at 12:00 until the 22 at 18:00 UTC


211111Z 2112/2218 31015G25KT 9999 SCT030
BECMG 2118/2121 30010KT
BECMG 2121/2124 27007KT
BECMG 2206/2209 31012KT
PROB30
TEMPO 2209/2215 31013G23KT 7000 -SHRA SCT020TCU BKN030
No reported NOTAMs for that airfield.



MET'MAP, your aeronautical weather chart ! - Copyright ORBIFLY December 2007 - Disclaimer

ORBIFLY MET'MAP TEAM :

Programming & Development : Alexandra Zaïnal
Concept & Development : Baudouin d'Aumeries
Co-Development & Prog : Marc-Olivier Méhu
Technical & hardware support : Manuel Goepfert

Contact : metmap@orbifly.com




SOURCES & CREDITS :

   NOAA